DGT weather

Sibulan Airport
Dumaguete City, Negros Oriental Province, Philippines

Public forecast

Using degrees Celsius for public forecast. Weather courtesy of forecast.io.

Current aviation weather report (METAR) for Sibulan Airport

Retrieved 2019/10/19 06:00 UTC (31 minutes ago):

RPVD 190600Z 09008KT 9999 FEW014CB FEW015 31/25 Q1008 RMK A2977 CB NE/W/NW TCU N/SW

Aviation forecast (TAF) for Sibulan Airport

Retrieved 2019/10/19 06:00 UTC (31 minutes ago):

TAF RPVD 190500Z 1906/2006 04005KT 9999 FEW015 SCT080 SCT220 TEMPO 1906/1912 02008KT FEW014CB SCT015 BKN080